Time;durP1;ratioP1;P1;durP2;ratioP2;P2;SDS_P1;SDS_P2;PMS_P1;PMS_P2;Temp;Humidity;BMP_temperature;BMP_pressure;BME280_temperature;BME280_humidity;BME280_pressure;Samples;Min_cycle;Max_cycle;Signal;HPM_P1;HPM_P2
2022/09/27 00:00:44;;;;;;;1.05;1.00;;;11.40;93.40;;;;;;6135584;23;20010;-83
2022/09/27 00:03:10;;;;;;;1.80;0.93;;;11.40;93.50;;;;;;6133765;23;20053;-84
2022/09/27 00:05:36;;;;;;;1.23;0.88;;;11.40;93.50;;;;;;6134348;23;20092;-85
2022/09/27 00:08:02;;;;;;;0.52;0.52;;;11.50;93.70;;;;;;6133883;23;20009;-83
2022/09/27 00:10:28;;;;;;;1.00;0.90;;;11.50;94.00;;;;;;6134387;23;20018;-84
2022/09/27 00:12:54;;;;;;;1.17;1.08;;;11.50;94.10;;;;;;6135573;23;20088;-84
2022/09/27 00:15:20;;;;;;;2.30;1.10;;;11.40;94.20;;;;;;6108670;23;20002;-84
2022/09/27 00:17:50;;;;;;;0.88;0.88;;;11.40;94.30;;;;;;6134444;23;20077;-83
2022/09/27 00:20:17;;;;;;;1.27;1.00;;;11.40;94.50;;;;;;6134043;23;19990;-85
2022/09/27 00:22:42;;;;;;;1.13;1.02;;;11.40;94.80;;;;;;6134130;23;20008;-83
2022/09/27 00:25:08;;;;;;;2.20;1.00;;;11.40;95.00;;;;;;6134431;23;20009;-85
2022/09/27 00:27:34;;;;;;;0.80;0.80;;;11.40;95.30;;;;;;6134673;23;20032;-84
2022/09/27 00:30:00;;;;;;;0.90;0.90;;;11.40;95.50;;;;;;6134345;23;20106;-84
2022/09/27 00:32:25;;;;;;;1.35;0.95;;;11.40;95.60;;;;;;6134474;23;20001;-84
2022/09/27 00:34:51;;;;;;;1.35;1.00;;;11.40;95.80;;;;;;6134136;23;20329;-85
2022/09/27 00:37:17;;;;;;;1.13;0.98;;;11.40;96.00;;;;;;6133576;23;20141;-84
2022/09/27 00:39:43;;;;;;;1.48;1.38;;;11.40;96.10;;;;;;6136490;23;20001;-83
2022/09/27 00:42:10;;;;;;;1.20;1.10;;;11.40;96.30;;;;;;6136214;23;20002;-84
2022/09/27 00:44:39;;;;;;;1.10;0.95;;;11.30;96.40;;;;;;6135479;23;20005;-84
2022/09/27 00:47:49;;;;;;;0.80;0.70;;;11.30;96.70;;;;;;6111151;23;20028;-84
2022/09/27 00:50:49;;;;;;;2.45;0.90;;;11.20;97.00;;;;;;6123427;23;20010;-84
2022/09/27 00:53:23;;;;;;;1.00;1.00;;;11.30;97.70;;;;;;6074223;23;20002;-85
2022/09/27 00:55:53;;;;;;;0.82;0.80;;;11.20;98.00;;;;;;6111640;23;20133;-84
2022/09/27 00:58:26;;;;;;;1.00;1.00;;;11.20;98.30;;;;;;6138028;23;20030;-84
2022/09/27 01:00:57;;;;;;;1.52;1.05;;;11.10;98.70;;;;;;6135780;23;20066;-83
2022/09/27 01:03:55;;;;;;;1.17;1.10;;;11.10;99.30;;;;;;6136953;23;20021;-85
2022/09/27 01:06:21;;;;;;;0.98;0.73;;;11.10;99.90;;;;;;6096048;23;20510;-85
2022/09/27 01:08:47;;;;;;;3.05;1.00;;;11.00;99.90;;;;;;6134394;23;19998;-85
2022/09/27 01:11:48;;;;;;;1.13;0.98;;;11.10;99.90;;;;;;6139340;23;20021;-84
2022/09/27 01:14:34;;;;;;;0.80;0.80;;;11.00;99.90;;;;;;6133961;23;20006;-84
2022/09/27 01:17:19;;;;;;;1.00;1.00;;;11.00;99.90;;;;;;6140964;23;19993;-85
2022/09/27 01:20:00;;;;;;;1.63;1.00;;;10.90;99.90;;;;;;6132287;23;20319;-83
2022/09/27 01:22:45;;;;;;;0.68;0.68;;;11.00;99.90;;;;;;6107934;23;20013;-83
2022/09/27 01:25:16;;;;;;;1.08;0.98;;;11.00;99.90;;;;;;6109813;23;20015;-85
2022/09/27 01:28:14;;;;;;;1.30;0.77;;;11.00;99.90;;;;;;6110942;23;20017;-84
2022/09/27 01:30:46;;;;;;;1.17;1.00;;;11.00;99.90;;;;;;6113448;23;20002;-84
2022/09/27 01:33:24;;;;;;;1.05;0.70;;;11.00;99.90;;;;;;6140947;23;20074;-83
2022/09/27 01:36:08;;;;;;;1.25;1.15;;;11.00;99.90;;;;;;6150970;23;19994;-85
2022/09/27 01:39:02;;;;;;;1.00;1.00;;;11.00;99.90;;;;;;6127822;23;20014;-86
2022/09/27 01:41:33;;;;;;;2.83;1.00;;;10.90;99.90;;;;;;6126985;23;20057;-85
2022/09/27 01:44:05;;;;;;;1.00;0.88;;;10.90;99.90;;;;;;6116953;23;20006;-83
2022/09/27 01:46:45;;;;;;;1.65;1.17;;;10.90;99.90;;;;;;6138454;23;20060;-84
2022/09/27 01:49:22;;;;;;;1.40;1.30;;;10.80;99.90;;;;;;6143209;23;19998;-83
2022/09/27 01:51:54;;;;;;;2.47;1.40;;;10.80;99.90;;;;;;6144107;23;20061;-83
2022/09/27 01:54:25;;;;;;;1.50;1.40;;;10.70;99.90;;;;;;6143300;23;21107;-83
2022/09/27 01:56:55;;;;;;;2.88;1.85;;;10.70;99.90;;;;;;6143478;23;20089;-83
2022/09/27 01:59:27;;;;;;;3.65;1.70;;;10.80;99.90;;;;;;6145460;23;20415;-83
2022/09/27 02:01:58;;;;;;;1.65;1.50;;;10.70;99.90;;;;;;6145314;23;19998;-84
2022/09/27 02:04:29;;;;;;;2.13;1.70;;;10.70;99.90;;;;;;6145626;23;20005;-84
2022/09/27 02:07:03;;;;;;;2.60;1.80;;;10.70;99.90;;;;;;6145081;23;20018;-84
2022/09/27 02:09:53;;;;;;;1.80;1.70;;;10.70;99.90;;;;;;6144595;23;20010;-85
2022/09/27 02:12:30;;;;;;;2.40;1.48;;;10.70;99.90;;;;;;6144578;23;20433;-85
2022/09/27 02:15:17;;;;;;;2.30;1.95;;;10.60;99.90;;;;;;6135942;23;20326;-83
2022/09/27 02:18:07;;;;;;;2.40;1.80;;;10.60;99.90;;;;;;6111278;23;20086;-84
2022/09/27 02:20:48;;;;;;;1.83;1.73;;;10.60;99.90;;;;;;6137011;23;20366;-84
2022/09/27 02:23:34;;;;;;;1.83;1.60;;;10.60;99.90;;;;;;6138471;23;20030;-85
2022/09/27 02:26:31;;;;;;;3.00;1.60;;;10.60;99.90;;;;;;6165801;23;20061;-78
2022/09/27 02:29:02;;;;;;;1.90;1.45;;;10.60;99.90;;;;;;6185822;23;20004;-77
2022/09/27 02:31:28;;;;;;;1.33;1.23;;;10.60;99.90;;;;;;6188713;23;20010;-77
2022/09/27 02:34:02;;;;;;;3.78;1.77;;;10.60;99.90;;;;;;6185982;23;20027;-78
2022/09/27 02:36:29;;;;;;;2.83;1.90;;;10.50;99.90;;;;;;6185492;23;20004;-78
2022/09/27 02:38:55;;;;;;;2.53;1.60;;;10.50;99.90;;;;;;6186233;23;20013;-78
2022/09/27 02:41:22;;;;;;;2.25;1.40;;;10.50;99.90;;;;;;6188625;23;19997;-79
2022/09/27 02:43:57;;;;;;;1.85;1.67;;;10.60;99.90;;;;;;6185288;23;19997;-78
2022/09/27 02:46:34;;;;;;;1.60;1.50;;;10.50;99.90;;;;;;6185611;23;20009;-77
2022/09/27 02:49:42;;;;;;;1.60;1.50;;;10.50;99.90;;;;;;6184022;23;20053;-78
2022/09/27 02:52:33;;;;;;;2.35;1.80;;;10.50;99.90;;;;;;6174027;23;20001;-79
2022/09/27 02:55:16;;;;;;;1.80;1.60;;;10.50;99.90;;;;;;6183537;23;20084;-77
2022/09/27 02:57:56;;;;;;;3.70;1.98;;;10.50;99.90;;;;;;6185752;23;19997;-79
2022/09/27 03:00:35;;;;;;;1.42;1.33;;;10.50;99.90;;;;;;6186030;23;20126;-80
2022/09/27 03:04:05;;;;;;;1.52;1.33;;;10.50;99.90;;;;;;6186600;23;19994;-78
2022/09/27 03:06:33;;;;;;;1.25;1.10;;;10.50;99.90;;;;;;6076830;23;20011;-77
2022/09/27 03:08:58;;;;;;;2.38;1.50;;;10.50;99.90;;;;;;6188531;23;20001;-77
2022/09/27 03:11:24;;;;;;;1.75;1.50;;;10.50;99.90;;;;;;6190805;23;20386;-79
2022/09/27 03:13:50;;;;;;;1.98;1.40;;;10.50;99.90;;;;;;6185856;23;20013;-79
2022/09/27 03:16:15;;;;;;;2.47;1.60;;;10.50;99.90;;;;;;6184339;23;20160;-78
2022/09/27 03:18:42;;;;;;;2.10;1.90;;;10.40;99.90;;;;;;6186712;23;20005;-77
2022/09/27 03:21:08;;;;;;;1.65;1.55;;;10.40;99.90;;;;;;6186059;23;20028;-78
2022/09/27 03:23:33;;;;;;;2.47;1.85;;;10.40;99.90;;;;;;6186016;23;20020;-79
2022/09/27 03:25:59;;;;;;;1.80;1.70;;;10.40;99.90;;;;;;6204745;23;20013;-79
2022/09/27 03:28:25;;;;;;;2.38;2.08;;;10.40;99.90;;;;;;6215457;23;20070;-77
2022/09/27 03:30:51;;;;;;;1.65;1.55;;;10.40;99.90;;;;;;6188618;23;20001;-78
2022/09/27 03:33:17;;;;;;;1.85;1.70;;;10.40;99.90;;;;;;6215229;23;20039;-76
2022/09/27 03:35:42;;;;;;;1.92;1.55;;;10.50;99.90;;;;;;6215516;23;20130;-77
2022/09/27 03:38:09;;;;;;;2.75;1.70;;;10.40;99.90;;;;;;6189195;23;20063;-79
2022/09/27 03:40:35;;;;;;;1.67;1.58;;;10.40;99.90;;;;;;6215496;23;20171;-79
2022/09/27 03:43:01;;;;;;;1.77;1.58;;;10.40;99.90;;;;;;6218337;22;20317;-80
2022/09/27 03:45:26;;;;;;;3.85;1.65;;;10.50;99.90;;;;;;6188623;23;20329;-79
2022/09/27 03:47:53;;;;;;;2.75;1.50;;;10.50;99.90;;;;;;6188630;23;20095;-78
2022/09/27 03:50:19;;;;;;;1.70;1.60;;;10.50;99.90;;;;;;6216434;23;20506;-79
2022/09/27 03:52:45;;;;;;;2.58;1.45;;;10.50;99.90;;;;;;6216025;23;20001;-78
2022/09/27 03:55:11;;;;;;;1.90;1.40;;;10.50;99.90;;;;;;6215392;23;20201;-79
2022/09/27 03:57:37;;;;;;;3.20;1.48;;;10.50;99.90;;;;;;6218122;23;20454;-80
2022/09/27 04:00:04;;;;;;;2.78;1.30;;;10.50;99.90;;;;;;6214939;23;20005;-77
2022/09/27 04:02:30;;;;;;;2.28;1.50;;;10.50;99.90;;;;;;6189321;23;20048;-77
2022/09/27 04:04:55;;;;;;;1.77;1.40;;;10.50;99.90;;;;;;6216780;23;20007;-77
2022/09/27 04:07:22;;;;;;;1.70;1.30;;;10.50;99.90;;;;;;6220233;23;20436;-78
2022/09/27 04:09:48;;;;;;;3.55;1.75;;;10.50;99.90;;;;;;6200695;23;20519;-79
2022/09/27 04:12:14;;;;;;;4.40;2.17;;;10.50;99.90;;;;;;6232842;23;20000;-79
2022/09/27 04:14:40;;;;;;;4.32;2.25;;;10.50;99.90;;;;;;6218483;23;20503;-79
2022/09/27 04:17:06;;;;;;;5.38;1.98;;;10.50;99.90;;;;;;6217572;23;20367;-78
2022/09/27 04:19:31;;;;;;;3.28;2.03;;;10.50;99.90;;;;;;6217833;23;20024;-79
2022/09/27 04:21:57;;;;;;;1.40;1.30;;;10.50;99.90;;;;;;6217845;23;20333;-76
2022/09/27 04:24:24;;;;;;;3.20;1.73;;;10.60;99.90;;;;;;6217830;23;20062;-77
2022/09/27 04:26:50;;;;;;;3.25;1.75;;;10.50;99.90;;;;;;6217748;23;20372;-77
2022/09/27 04:29:16;;;;;;;1.90;1.80;;;10.50;99.90;;;;;;6220790;22;20005;-78
2022/09/27 04:31:43;;;;;;;1.73;1.52;;;10.50;99.90;;;;;;6218632;23;20079;-80
2022/09/27 04:34:09;;;;;;;2.22;1.73;;;10.50;99.90;;;;;;6218203;23;20001;-79
2022/09/27 04:36:35;;;;;;;4.35;1.67;;;10.40;99.90;;;;;;6220499;22;20035;-79
2022/09/27 04:39:03;;;;;;;2.10;1.80;;;10.40;99.90;;;;;;6217527;23;20331;-78
2022/09/27 04:41:29;;;;;;;1.98;1.52;;;10.40;99.90;;;;;;6217053;23;20024;-78
2022/09/27 04:43:56;;;;;;;2.15;1.92;;;10.40;99.90;;;;;;6217794;23;20000;-80
2022/09/27 04:46:23;;;;;;;2.95;1.52;;;10.40;99.90;;;;;;6219729;23;20511;-77
2022/09/27 04:48:49;;;;;;;2.00;1.73;;;10.40;99.90;;;;;;6225804;23;20080;-76
2022/09/27 04:51:16;;;;;;;2.00;1.80;;;10.30;99.90;;;;;;6221696;23;19997;-78
2022/09/27 04:53:46;;;;;;;3.20;1.73;;;10.20;99.90;;;;;;6218473;23;20008;-79
2022/09/27 04:56:12;;;;;;;2.00;1.60;;;10.20;99.90;;;;;;6216608;23;20004;-78
2022/09/27 04:58:38;;;;;;;1.75;1.60;;;10.10;99.90;;;;;;6190137;23;20005;-78
2022/09/27 05:01:04;;;;;;;3.85;1.70;;;10.10;99.90;;;;;;6216851;23;20071;-78
2022/09/27 05:03:31;;;;;;;5.57;1.70;;;10.10;99.90;;;;;;6217480;23;20440;-78
2022/09/27 05:05:57;;;;;;;3.10;1.83;;;10.10;99.90;;;;;;6216795;23;20011;-78
2022/09/27 05:08:23;;;;;;;2.33;1.80;;;10.20;99.90;;;;;;6217684;23;19996;-77
2022/09/27 05:10:49;;;;;;;4.53;1.63;;;10.20;99.90;;;;;;6192005;23;20032;-78
2022/09/27 05:13:15;;;;;;;1.77;1.67;;;10.20;99.90;;;;;;6219782;23;20007;-77
2022/09/27 05:15:41;;;;;;;2.22;1.67;;;10.30;99.90;;;;;;6217108;23;20323;-78
2022/09/27 05:18:08;;;;;;;3.72;1.92;;;10.30;99.90;;;;;;6215956;23;20456;-76
2022/09/27 05:20:35;;;;;;;3.10;1.73;;;10.40;99.90;;;;;;6216908;23;20328;-78
2022/09/27 05:23:03;;;;;;;2.10;1.90;;;10.40;99.90;;;;;;6219887;23;20007;-77
2022/09/27 05:25:30;;;;;;;2.75;1.40;;;10.40;99.90;;;;;;6190583;23;20315;-77
2022/09/27 05:27:57;;;;;;;1.90;1.60;;;10.40;99.90;;;;;;6191107;23;20004;-78
2022/09/27 05:30:23;;;;;;;1.88;1.05;;;10.50;99.90;;;;;;6191657;23;20009;-79
2022/09/27 05:32:49;;;;;;;1.10;1.00;;;10.60;99.90;;;;;;6217504;23;20000;-78
2022/09/27 05:35:17;;;;;;;0.70;0.70;;;10.60;99.90;;;;;;6217588;23;20004;-77
2022/09/27 05:37:42;;;;;;;1.70;1.15;;;10.60;99.90;;;;;;6218351;23;20336;-77
2022/09/27 05:40:08;;;;;;;0.80;0.80;;;10.60;99.90;;;;;;6222885;23;20055;-78
2022/09/27 05:42:37;;;;;;;2.13;0.88;;;10.70;99.90;;;;;;6226676;23;20076;-78
2022/09/27 05:45:05;;;;;;;2.08;1.05;;;10.70;99.90;;;;;;6199240;23;20394;-79
2022/09/27 05:47:31;;;;;;;4.97;1.25;;;10.70;99.90;;;;;;6221288;23;20066;-77
2022/09/27 05:49:57;;;;;;;2.00;1.10;;;10.70;99.90;;;;;;6200718;23;20009;-78
2022/09/27 05:52:22;;;;;;;1.40;0.93;;;10.70;99.90;;;;;;6200652;23;20011;-79
2022/09/27 05:54:48;;;;;;;4.13;1.17;;;10.80;99.90;;;;;;6199231;23;20003;-79
2022/09/27 05:57:14;;;;;;;3.20;0.98;;;10.70;99.90;;;;;;6221115;23;20008;-78
2022/09/27 05:59:40;;;;;;;1.05;0.55;;;10.70;99.90;;;;;;6194222;23;20292;-78
2022/09/27 06:02:06;;;;;;;1.95;0.75;;;10.70;99.90;;;;;;6192553;23;20312;-79
2022/09/27 06:04:31;;;;;;;0.50;0.50;;;10.70;99.90;;;;;;6222529;23;19984;-78
2022/09/27 06:06:58;;;;;;;0.57;0.57;;;10.70;99.90;;;;;;6220020;23;20047;-78
2022/09/27 06:09:25;;;;;;;2.15;0.90;;;10.80;99.90;;;;;;6218989;23;20055;-79
2022/09/27 06:11:52;;;;;;;1.40;0.93;;;10.80;99.90;;;;;;6230344;22;20000;-79
2022/09/27 06:14:18;;;;;;;1.35;0.70;;;10.80;99.90;;;;;;6231776;23;20055;-79
2022/09/27 06:16:44;;;;;;;0.85;0.57;;;10.80;99.90;;;;;;6194320;23;20008;-79
2022/09/27 06:19:09;;;;;;;2.75;0.82;;;10.90;99.90;;;;;;6218192;23;20043;-78
2022/09/27 06:21:36;;;;;;;1.33;0.70;;;10.90;99.90;;;;;;6190915;23;20009;-78
2022/09/27 06:24:02;;;;;;;0.80;0.40;;;10.90;99.90;;;;;;6190581;23;20008;-79
2022/09/27 06:26:27;;;;;;;1.88;0.70;;;10.90;99.90;;;;;;6216577;23;20019;-79
2022/09/27 06:28:54;;;;;;;3.78;1.10;;;11.00;99.90;;;;;;6195427;23;20035;-78
2022/09/27 06:31:20;;;;;;;2.88;0.70;;;10.90;99.90;;;;;;6216492;23;20011;-79
2022/09/27 06:33:47;;;;;;;1.75;0.70;;;10.90;99.90;;;;;;6216920;23;20082;-80
2022/09/27 06:36:13;;;;;;;1.17;0.60;;;11.00;99.90;;;;;;6216883;23;20004;-80
2022/09/27 06:38:39;;;;;;;0.98;0.50;;;11.10;99.90;;;;;;6220434;23;20009;-78
2022/09/27 06:41:05;;;;;;;1.40;0.50;;;11.10;99.90;;;;;;6191398;23;20036;-78
2022/09/27 06:43:32;;;;;;;0.65;0.40;;;11.10;99.90;;;;;;6219725;23;20016;-78
2022/09/27 06:46:04;;;;;;;0.75;0.60;;;11.10;99.90;;;;;;6193132;23;20013;-78
2022/09/27 06:48:31;;;;;;;3.35;0.63;;;11.20;99.90;;;;;;6217748;23;20372;-78
2022/09/27 06:50:57;;;;;;;4.55;0.77;;;11.30;99.80;;;;;;6220884;23;20008;-81
2022/09/27 06:53:24;;;;;;;3.03;0.68;;;11.40;99.40;;;;;;6220302;23;20492;-77
2022/09/27 06:55:50;;;;;;;2.22;1.23;;;11.50;99.20;;;;;;6216156;23;20096;-79
2022/09/27 07:01:02;;;;;;;1.50;0.80;;;11.60;98.80;;;;;;6223177;23;20015;-78
2022/09/27 07:03:33;;;;;;;1.27;0.73;;;11.60;97.90;;;;;;6193886;23;20009;-77
2022/09/27 07:06:03;;;;;;;1.75;0.60;;;11.50;98.20;;;;;;6223795;23;20092;-79
2022/09/27 07:08:29;;;;;;;4.38;1.15;;;11.50;98.50;;;;;;6199342;23;20004;-78
2022/09/27 07:11:01;;;;;;;1.85;0.98;;;11.70;98.00;;;;;;6191934;23;20054;-78
2022/09/27 07:13:30;;;;;;;2.05;0.73;;;11.90;97.60;;;;;;6196751;23;20007;-77
2022/09/27 07:15:56;;;;;;;1.95;0.80;;;12.00;96.90;;;;;;6225103;23;20083;-76
2022/09/27 07:18:22;;;;;;;2.33;1.00;;;12.00;96.50;;;;;;6224500;23;19996;-79
2022/09/27 07:20:48;;;;;;;3.20;1.10;;;12.10;95.50;;;;;;6231596;23;20007;-80
2022/09/27 07:23:15;;;;;;;1.08;0.82;;;12.30;95.00;;;;;;6214829;23;20035;-82
2022/09/27 07:25:41;;;;;;;3.80;1.25;;;12.40;94.60;;;;;;6239923;23;19997;-81
2022/09/27 07:28:13;;;;;;;4.80;0.98;;;12.50;93.40;;;;;;6238925;23;20062;-78
2022/09/27 07:30:40;;;;;;;2.67;0.98;;;12.50;93.70;;;;;;6225789;23;20007;-79
2022/09/27 07:33:07;;;;;;;1.50;0.70;;;12.40;93.90;;;;;;6216842;23;20052;-78
2022/09/27 07:35:35;;;;;;;5.65;1.15;;;12.50;94.10;;;;;;6190581;23;20001;-79
2022/09/27 07:38:02;;;;;;;3.60;0.57;;;12.40;93.70;;;;;;6218051;23;20007;-77
2022/09/27 07:40:28;;;;;;;1.45;0.85;;;12.40;93.70;;;;;;6192356;23;20028;-78
2022/09/27 07:42:57;;;;;;;5.72;0.93;;;12.50;94.60;;;;;;6197575;23;20432;-78
2022/09/27 07:45:24;;;;;;;2.20;1.00;;;12.70;94.40;;;;;;6222520;23;20319;-79
2022/09/27 07:47:50;;;;;;;1.90;0.60;;;12.90;92.90;;;;;;6230552;23;20028;-77
2022/09/27 07:50:16;;;;;;;2.67;0.70;;;12.90;93.40;;;;;;6231762;23;20020;-78
2022/09/27 07:52:44;;;;;;;1.88;0.60;;;13.10;93.40;;;;;;6222752;23;20047;-79
2022/09/27 07:55:12;;;;;;;2.33;0.77;;;13.10;92.80;;;;;;6198926;23;20000;-77
2022/09/27 07:57:37;;;;;;;0.55;0.43;;;13.10;91.50;;;;;;6224496;23;20005;-79
2022/09/27 08:00:06;;;;;;;0.85;0.50;;;13.10;92.00;;;;;;6219732;23;20066;-79
2022/09/27 08:02:32;;;;;;;0.95;0.45;;;13.00;91.20;;;;;;6222865;23;20000;-80
2022/09/27 08:04:59;;;;;;;1.15;0.52;;;12.80;91.20;;;;;;6220191;23;20389;-79
2022/09/27 08:07:25;;;;;;;1.23;0.47;;;12.90;91.60;;;;;;6219169;23;20343;-78
2022/09/27 08:09:51;;;;;;;4.60;0.85;;;13.20;91.00;;;;;;6222929;23;20027;-79
2022/09/27 08:12:19;;;;;;;0.85;0.40;;;13.40;89.50;;;;;;6219924;23;20039;-79
2022/09/27 08:14:46;;;;;;;1.55;0.57;;;13.40;88.20;;;;;;6211309;23;20005;-78
2022/09/27 08:17:12;;;;;;;2.20;0.45;;;13.10;90.80;;;;;;6222871;23;20072;-79
2022/09/27 08:19:38;;;;;;;0.63;0.30;;;12.60;93.30;;;;;;6219867;23;20008;-80
2022/09/27 08:22:04;;;;;;;2.97;0.40;;;12.10;94.50;;;;;;6221982;23;20178;-78
2022/09/27 08:26:58;;;;;;;0.65;0.30;;;11.20;96.80;;;;;;6131238;23;20021;-82
2022/09/27 08:29:24;;;;;;;2.30;0.52;;;10.80;97.10;;;;;;6132285;23;20056;-81
2022/09/27 08:31:51;;;;;;;0.40;0.40;;;10.60;97.70;;;;;;6107401;23;20002;-80
2022/09/27 08:34:16;;;;;;;1.38;0.45;;;10.50;97.80;;;;;;6133652;23;20029;-81
2022/09/27 08:36:42;;;;;;;0.60;0.28;;;10.40;98.50;;;;;;6133058;23;20045;-80
2022/09/27 08:39:08;;;;;;;3.00;0.35;;;10.40;97.50;;;;;;6133654;23;20025;-81
2022/09/27 08:41:56;;;;;;;1.45;0.70;;;10.40;97.60;;;;;;6132763;23;20081;-80
2022/09/27 08:44:43;;;;;;;2.47;0.60;;;10.40;97.90;;;;;;6116361;23;20069;-81
2022/09/27 08:47:17;;;;;;;1.45;0.50;;;10.30;99.40;;;;;;6133859;23;20006;-82
2022/09/27 08:49:55;;;;;;;2.20;0.93;;;10.20;99.90;;;;;;6134144;23;20006;-81
2022/09/27 08:52:29;;;;;;;3.85;0.65;;;10.50;99.60;;;;;;6133584;23;20025;-81
2022/09/27 08:54:57;;;;;;;0.88;0.60;;;10.70;99.60;;;;;;6130605;23;20379;-82
2022/09/27 08:57:24;;;;;;;1.38;0.63;;;11.10;99.40;;;;;;6132753;23;20006;-82
2022/09/27 09:00:10;;;;;;;2.97;0.50;;;11.70;98.20;;;;;;6132094;23;20010;-81
2022/09/27 09:02:37;;;;;;;1.40;0.50;;;12.50;97.30;;;;;;6136750;23;20006;-82
2022/09/27 09:05:36;;;;;;;0.93;0.60;;;13.20;94.00;;;;;;6141280;23;20009;-80
2022/09/27 09:08:31;;;;;;;2.42;0.63;;;13.50;91.60;;;;;;6147459;23;20005;-80
2022/09/27 09:15:00;;;;;;;2.95;0.50;;;12.70;92.20;;;;;;6046526;23;20022;-80
2022/09/27 09:17:44;;;;;;;0.45;0.43;;;12.40;92.60;;;;;;6054461;23;20010;-79
2022/09/27 09:20:22;;;;;;;1.48;0.75;;;12.60;92.70;;;;;;6136496;23;20002;-81
2022/09/27 09:23:05;;;;;;;1.08;0.57;;;13.00;92.00;;;;;;6134618;23;20054;-81
2022/09/27 09:25:49;;;;;;;1.40;0.90;;;13.60;91.20;;;;;;6158082;23;20043;-80
2022/09/27 09:28:17;;;;;;;2.63;0.45;;;14.50;87.50;;;;;;6191551;23;20500;-80
2022/09/27 09:31:03;;;;;;;0.82;0.40;;;14.80;85.10;;;;;;6192151;23;19997;-79
2022/09/27 09:33:34;;;;;;;0.45;0.43;;;14.90;84.40;;;;;;6192785;23;20059;-82
2022/09/27 09:36:37;;;;;;;0.50;0.50;;;14.60;80.50;;;;;;6192492;23;20054;-81
2022/09/27 09:39:32;;;;;;;1.77;0.60;;;14.30;83.80;;;;;;6192042;23;20332;-80
2022/09/27 09:42:26;;;;;;;1.70;0.70;;;14.90;82.40;;;;;;6190561;23;20401;-82
2022/09/27 09:45:24;;;;;;;2.05;0.70;;;14.70;79.30;;;;;;6193818;23;20072;-82
2022/09/27 09:48:05;;;;;;;1.55;0.50;;;14.20;80.30;;;;;;6196412;23;20005;-81
2022/09/27 09:50:46;;;;;;;1.75;0.50;;;13.60;82.70;;;;;;6195067;23;20079;-82
2022/09/27 09:53:26;;;;;;;6.43;0.60;;;13.10;84.20;;;;;;6192008;23;19997;-81
2022/09/27 09:56:19;;;;;;;1.15;0.40;;;12.60;87.40;;;;;;6191219;23;20020;-80
2022/09/27 09:58:56;;;;;;;0.95;0.60;;;12.30;89.40;;;;;;6206457;23;20001;-81
2022/09/27 10:01:26;;;;;;;1.75;0.68;;;12.10;90.40;;;;;;6200558;23;19997;-83
2022/09/27 10:03:55;;;;;;;1.40;0.70;;;12.10;90.90;;;;;;6199869;23;19997;-79
2022/09/27 10:06:22;;;;;;;0.45;0.45;;;12.20;91.30;;;;;;6205648;23;20001;-81
2022/09/27 10:08:52;;;;;;;0.98;0.40;;;12.50;90.90;;;;;;6203847;23;20027;-81
2022/09/27 10:11:40;;;;;;;2.13;0.52;;;12.70;88.10;;;;;;6202546;23;20004;-82
2022/09/27 10:14:16;;;;;;;1.17;0.50;;;12.80;86.10;;;;;;6179496;23;20036;-81
2022/09/27 10:16:47;;;;;;;3.00;0.57;;;12.70;87.00;;;;;;6179307;23;19989;-80
2022/09/27 10:19:16;;;;;;;0.80;0.55;;;12.60;87.70;;;;;;6204255;23;20044;-79
2022/09/27 10:21:44;;;;;;;1.30;0.60;;;12.50;89.20;;;;;;6169605;23;20009;-81
2022/09/27 10:24:13;;;;;;;1.45;0.40;;;12.40;90.30;;;;;;6195854;23;20016;-80
2022/09/27 10:26:42;;;;;;;1.05;0.60;;;12.30;90.90;;;;;;6166831;23;20040;-79
2022/09/27 10:29:38;;;;;;;0.50;0.50;;;12.20;90.90;;;;;;6194241;23;20004;-79
2022/09/27 10:32:17;;;;;;;1.08;0.50;;;12.00;91.70;;;;;;6137598;23;20005;-79
2022/09/27 10:34:43;;;;;;;5.03;0.90;;;11.80;92.50;;;;;;6194328;23;20012;-80
2022/09/27 10:37:11;;;;;;;3.28;0.88;;;11.80;93.20;;;;;;6194214;23;20084;-80
2022/09/27 10:39:40;;;;;;;1.35;0.63;;;11.80;93.10;;;;;;6199396;23;20005;-79
2022/09/27 10:42:54;;;;;;;1.25;0.80;;;11.80;92.20;;;;;;6210253;23;20073;-81
2022/09/27 10:45:29;;;;;;;1.58;0.52;;;11.90;92.30;;;;;;6153042;23;20005;-79
2022/09/27 10:47:57;;;;;;;0.73;0.65;;;12.00;91.90;;;;;;6199724;23;20128;-80
2022/09/27 10:50:28;;;;;;;1.73;0.65;;;12.00;92.80;;;;;;6191635;23;20009;-81
2022/09/27 10:53:30;;;;;;;1.40;0.50;;;11.80;93.40;;;;;;6196036;23;20028;-82
2022/09/27 10:55:56;;;;;;;2.05;0.95;;;11.60;94.70;;;;;;6028036;23;20071;-82
2022/09/27 10:58:24;;;;;;;4.38;0.75;;;11.50;95.80;;;;;;6067697;23;20001;-81
2022/09/27 11:01:01;;;;;;;1.15;0.80;;;11.60;95.60;;;;;;6193859;23;20029;-82
2022/09/27 11:03:30;;;;;;;1.27;0.88;;;11.70;94.50;;;;;;6195100;23;20057;-82
2022/09/27 11:05:58;;;;;;;2.78;1.25;;;11.80;93.80;;;;;;6168526;23;20013;-82
2022/09/27 11:08:31;;;;;;;0.70;0.70;;;11.90;94.30;;;;;;6194515;23;20001;-82
2022/09/27 11:11:27;;;;;;;1.98;0.85;;;12.20;94.60;;;;;;6194828;23;19997;-82
2022/09/27 11:14:06;;;;;;;2.05;0.68;;;12.70;94.70;;;;;;6195524;23;20038;-81
2022/09/27 11:17:03;;;;;;;0.63;0.60;;;12.80;94.10;;;;;;6197183;23;20028;-81
2022/09/27 11:19:28;;;;;;;2.25;1.00;;;12.70;94.60;;;;;;6194376;23;20336;-81
2022/09/27 11:22:07;;;;;;;2.30;1.27;;;12.80;94.30;;;;;;6195790;23;20044;-81
2022/09/27 11:25:00;;;;;;;1.15;0.68;;;13.10;94.60;;;;;;6193926;23;20479;-81
2022/09/27 11:28:00;;;;;;;1.48;0.85;;;13.50;92.10;;;;;;6194040;23;20008;-81
2022/09/27 11:30:42;;;;;;;0.57;0.50;;;13.60;90.50;;;;;;6191747;23;20009;-80
2022/09/27 11:33:35;;;;;;;1.55;0.60;;;13.20;90.20;;;;;;6192878;23;20053;-82
2022/09/27 11:36:16;;;;;;;1.33;0.65;;;12.90;90.20;;;;;;6191136;23;20001;-82
2022/09/27 11:39:07;;;;;;;1.45;0.60;;;12.60;88.80;;;;;;6194092;23;20381;-81
2022/09/27 11:41:52;;;;;;;1.05;0.32;;;12.30;90.30;;;;;;6190582;23;20038;-82
2022/09/27 11:45:00;;;;;;;1.17;0.22;;;12.10;90.70;;;;;;6165312;23;20024;-80
2022/09/27 11:48:10;;;;;;;0.25;0.25;;;12.00;90.50;;;;;;6191477;23;20005;-81
2022/09/27 11:50:45;;;;;;;0.63;0.30;;;12.00;91.00;;;;;;6200642;23;20178;-81
2022/09/27 11:53:48;;;;;;;0.35;0.20;;;12.20;91.40;;;;;;6201409;23;19998;-81
2022/09/27 11:56:57;;;;;;;1.35;0.60;;;12.80;91.50;;;;;;6194649;23;20008;-82
2022/09/27 11:59:53;;;;;;;1.27;0.40;;;13.70;87.40;;;;;;6111906;23;20005;-82
2022/09/27 12:02:40;;;;;;;0.93;0.40;;;14.00;85.40;;;;;;6203404;23;20012;-81
2022/09/27 12:05:07;;;;;;;1.17;0.60;;;13.90;84.30;;;;;;6203010;23;20001;-81
2022/09/27 12:07:39;;;;;;;0.65;0.47;;;13.60;84.50;;;;;;6193841;23;20005;-81
2022/09/27 12:10:12;;;;;;;2.47;0.50;;;13.20;85.40;;;;;;6193071;23;20000;-82
2022/09/27 12:12:43;;;;;;;2.15;0.28;;;12.80;87.40;;;;;;6192908;23;20254;-82
2022/09/27 12:15:32;;;;;;;2.13;0.50;;;12.50;90.00;;;;;;6191808;23;19998;-81
2022/09/27 12:18:24;;;;;;;0.68;0.45;;;12.30;91.20;;;;;;6164879;23;20069;-82
2022/09/27 12:20:51;;;;;;;1.20;0.65;;;12.10;91.80;;;;;;6173108;23;20014;-81
2022/09/27 12:23:29;;;;;;;0.50;0.40;;;12.00;92.10;;;;;;6184327;23;20035;-79
2022/09/27 12:26:05;;;;;;;0.70;0.30;;;11.70;92.70;;;;;;6201136;23;20015;-81
2022/09/27 12:28:53;;;;;;;2.15;0.60;;;11.20;92.80;;;;;;6192607;23;20001;-81
2022/09/27 12:31:43;;;;;;;1.83;0.40;;;10.80;94.60;;;;;;6191120;23;20005;-81
2022/09/27 12:34:31;;;;;;;3.90;0.70;;;10.60;95.60;;;;;;6192281;23;20024;-82
2022/09/27 12:37:13;;;;;;;1.20;0.60;;;10.40;97.10;;;;;;6190530;23;20451;-81
2022/09/27 12:40:12;;;;;;;3.83;0.50;;;10.40;98.60;;;;;;6190230;23;20005;-82
2022/09/27 12:42:51;;;;;;;0.50;0.50;;;11.10;99.70;;;;;;6192414;23;20420;-82
2022/09/27 12:45:27;;;;;;;0.60;0.60;;;11.80;96.80;;;;;;6190742;23;20000;-81
2022/09/27 12:48:28;;;;;;;2.08;0.50;;;12.30;95.60;;;;;;6165948;23;20005;-82
2022/09/27 12:51:05;;;;;;;0.80;0.40;;;12.40;94.60;;;;;;6192064;23;20001;-81
2022/09/27 12:53:51;;;;;;;1.27;0.70;;;12.50;94.90;;;;;;6191583;23;19997;-80
2022/09/27 12:56:29;;;;;;;1.08;0.68;;;12.60;93.90;;;;;;6191619;23;20001;-81
2022/09/27 12:59:10;;;;;;;1.27;0.50;;;12.70;94.60;;;;;;6191157;23;20009;-82
2022/09/27 13:01:54;;;;;;;0.57;0.50;;;12.90;94.10;;;;;;6166084;23;20016;-82
2022/09/27 13:04:36;;;;;;;1.20;0.40;;;13.00;92.90;;;;;;6191927;23;20009;-82
2022/09/27 13:07:26;;;;;;;0.50;0.40;;;13.00;93.10;;;;;;6189870;23;20001;-81
2022/09/27 13:10:10;;;;;;;0.93;0.40;;;13.20;93.70;;;;;;6199107;23;20001;-80
2022/09/27 13:12:38;;;;;;;1.40;0.68;;;13.20;93.10;;;;;;6209736;23;20003;-80
2022/09/27 13:15:28;;;;;;;2.47;0.70;;;13.10;93.10;;;;;;6184922;23;20020;-78
2022/09/27 13:17:56;;;;;;;0.50;0.45;;;13.30;90.60;;;;;;6207676;23;20048;-80
2022/09/27 13:20:34;;;;;;;1.48;0.57;;;13.50;88.10;;;;;;6171924;23;20028;-81
2022/09/27 13:23:21;;;;;;;2.13;0.70;;;14.00;80.60;;;;;;6192128;23;20001;-80
2022/09/27 13:25:50;;;;;;;2.35;0.82;;;14.20;80.50;;;;;;6107539;23;20016;-81
2022/09/27 13:28:48;;;;;;;2.05;0.93;;;14.40;83.20;;;;;;6195191;23;20019;-81
2022/09/27 13:31:14;;;;;;;2.70;0.57;;;14.40;81.30;;;;;;6165206;23;20005;-82